createdAt,value
2022-09-06T00:01:18.372Z,96671.06
2022-09-06T00:03:46.830Z,96617.91
2022-09-06T00:06:17.463Z,96666.84
2022-09-06T00:08:48.101Z,96663.59
2022-09-06T00:11:17.465Z,96654.81
2022-09-06T00:13:45.673Z,96655.19
2022-09-06T00:16:16.634Z,96657.06
2022-09-06T00:18:45.425Z,96566.97
2022-09-06T00:21:18.690Z,96645.31
2022-09-06T00:23:48.236Z,96656.09
2022-09-06T00:26:16.426Z,96657.56
2022-09-06T00:28:44.647Z,96660.22
2022-09-06T00:31:14.101Z,96653.03
2022-09-06T00:33:42.553Z,96641.56
2022-09-06T00:36:11.020Z,96656.75
2022-09-06T00:38:39.511Z,96652.31
2022-09-06T00:41:11.587Z,96650.69
2022-09-06T00:43:39.717Z,96653.09
2022-09-06T00:46:09.415Z,96623.91
2022-09-06T00:48:38.858Z,96654.09
2022-09-06T00:51:10.011Z,96654.78
2022-09-06T00:53:38.123Z,96650.31
2022-09-06T00:56:08.188Z,96639.16
2022-09-06T00:58:36.458Z,96597.97
2022-09-06T01:01:05.240Z,96645.88
2022-09-06T01:03:33.492Z,96647.94
2022-09-06T01:06:20.622Z,96633.19
2022-09-06T01:08:59.282Z,96645.38
2022-09-06T01:11:54.988Z,96649.38
2022-09-06T01:14:31.848Z,96641.88
2022-09-06T01:17:04.901Z,96645.59
2022-09-06T01:19:52.489Z,96646.72
2022-09-06T01:22:33.458Z,96632.50
2022-09-06T01:25:09.926Z,96637.94
2022-09-06T01:28:07.670Z,96639.16
2022-09-06T01:30:39.479Z,96640.50
2022-09-06T01:33:11.673Z,96645.00
2022-09-06T01:35:41.889Z,96640.19
2022-09-06T01:38:10.138Z,96638.13
2022-09-06T01:40:38.124Z,96636.72
2022-09-06T01:43:11.213Z,96643.81
2022-09-06T01:45:45.448Z,96640.69
2022-09-06T01:48:26.161Z,96649.03
2022-09-06T01:51:00.158Z,96646.16
2022-09-06T01:53:47.748Z,96641.38
2022-09-06T01:56:22.541Z,96634.19
2022-09-06T01:59:03.301Z,96648.97
2022-09-06T02:01:36.859Z,96649.66
2022-09-06T02:04:09.526Z,96655.31
2022-09-06T02:06:42.013Z,96654.28
2022-09-06T02:09:12.604Z,96643.53
2022-09-06T02:11:43.309Z,96643.31
2022-09-06T02:14:17.234Z,96628.78
2022-09-06T02:16:47.259Z,96636.78
2022-09-06T02:19:18.994Z,96636.66
2022-09-06T02:21:47.796Z,96634.91
2022-09-06T02:24:19.655Z,96622.91
2022-09-06T02:26:48.097Z,96595.16
2022-09-06T02:29:18.050Z,96628.13
2022-09-06T02:31:48.618Z,96623.25
2022-09-06T02:34:18.861Z,96627.34
2022-09-06T02:36:47.731Z,96611.22
2022-09-06T02:39:15.787Z,96598.00
2022-09-06T02:41:45.003Z,96620.38
2022-09-06T02:44:13.043Z,96620.03
2022-09-06T02:46:42.439Z,96628.34
2022-09-06T02:49:10.469Z,96629.81
2022-09-06T02:51:39.385Z,96626.47
2022-09-06T02:54:08.077Z,96565.31
2022-09-06T02:56:36.751Z,96637.97
2022-09-06T02:59:05.553Z,96628.13
2022-09-06T03:01:35.263Z,96622.91
2022-09-06T03:04:04.770Z,96624.38
2022-09-06T03:06:32.841Z,96627.00
2022-09-06T03:09:01.076Z,96627.72
2022-09-06T03:11:29.216Z,96622.69
2022-09-06T03:13:57.192Z,96631.72
2022-09-06T03:16:25.282Z,96635.91
2022-09-06T03:18:53.333Z,96638.16
2022-09-06T03:21:22.752Z,96638.16
2022-09-06T03:23:51.011Z,96621.38
2022-09-06T03:26:19.010Z,96631.94
2022-09-06T03:28:47.006Z,96623.75
2022-09-06T03:31:15.174Z,96624.53
2022-09-06T03:33:43.216Z,96624.03
2022-09-06T03:36:11.190Z,96616.25
2022-09-06T03:38:41.546Z,96612.38
2022-09-06T03:41:09.564Z,96619.94
2022-09-06T03:43:37.741Z,96618.06
2022-09-06T03:46:05.872Z,96613.16
2022-09-06T03:48:33.900Z,96605.09
2022-09-06T03:51:01.881Z,96609.28
2022-09-06T03:53:30.649Z,96608.44
2022-09-06T03:56:00.104Z,96620.41
2022-09-06T03:58:31.895Z,96609.97
2022-09-06T04:01:07.743Z,96619.00
2022-09-06T04:03:36.154Z,96615.19
2022-09-06T04:06:04.984Z,96613.78
2022-09-06T04:08:33.545Z,96619.78
2022-09-06T04:11:03.034Z,96607.97
2022-09-06T04:13:31.601Z,96615.78
2022-09-06T04:15:59.709Z,96614.97
2022-09-06T04:18:28.321Z,96613.97
2022-09-06T04:20:57.105Z,96622.75
2022-09-06T04:23:25.764Z,96620.25
2022-09-06T04:25:55.100Z,96618.41
2022-09-06T04:28:26.552Z,96604.72
2022-09-06T04:30:55.087Z,96608.19
2022-09-06T04:33:25.826Z,96611.38
2022-09-06T04:35:54.323Z,96611.69
2022-09-06T04:38:28.219Z,96601.75
2022-09-06T04:40:56.634Z,96614.88
2022-09-06T04:43:26.051Z,96613.97
2022-09-06T04:45:54.096Z,96617.66
2022-09-06T04:48:22.146Z,96617.34
2022-09-06T04:50:50.246Z,96600.22
2022-09-06T04:53:18.238Z,96614.75
2022-09-06T04:55:46.263Z,96602.00
2022-09-06T04:58:14.274Z,96606.63
2022-09-06T05:00:44.804Z,96610.47
2022-09-06T05:03:12.926Z,96611.16
2022-09-06T05:05:40.904Z,96616.09
2022-09-06T05:08:08.938Z,96612.72
2022-09-06T05:10:36.944Z,96618.56
2022-09-06T05:13:05.009Z,96617.44
2022-09-06T05:15:33.650Z,96611.94
2022-09-06T05:18:06.758Z,96643.78
2022-09-06T05:20:34.747Z,96652.91
2022-09-06T05:23:02.733Z,96651.09
2022-09-06T05:25:31.179Z,96660.44
2022-09-06T05:27:59.174Z,96651.44
2022-09-06T05:30:27.122Z,96674.53
2022-09-06T05:32:55.162Z,96678.78
2022-09-06T05:35:24.549Z,96697.56
2022-09-06T05:37:52.559Z,96694.28
2022-09-06T05:40:20.635Z,96708.47
2022-09-06T05:42:49.014Z,96698.97
2022-09-06T05:45:17.183Z,96693.28
2022-09-06T05:47:45.301Z,96695.75
2022-09-06T05:50:13.544Z,96702.50
2022-09-06T05:52:42.893Z,96693.19
2022-09-06T05:55:11.182Z,96694.69
2022-09-06T05:57:39.151Z,96699.41
2022-09-06T06:00:08.072Z,96707.44
2022-09-06T06:02:36.139Z,96703.66
2022-09-06T06:05:04.635Z,96696.63
2022-09-06T06:07:32.605Z,96708.44
2022-09-06T06:10:01.984Z,96709.63
2022-09-06T06:12:30.947Z,96695.63
2022-09-06T06:14:59.261Z,96707.34
2022-09-06T06:17:28.695Z,96705.09
2022-09-06T06:19:56.720Z,96705.97
2022-09-06T06:22:24.754Z,96700.09
2022-09-06T06:24:52.774Z,96700.88
2022-09-06T06:27:22.164Z,96703.34
2022-09-06T06:29:50.618Z,96705.94
2022-09-06T06:32:18.666Z,96706.41
2022-09-06T06:34:46.723Z,96704.25
2022-09-06T06:37:15.384Z,96712.59
2022-09-06T06:39:43.458Z,96708.66
2022-09-06T06:42:11.545Z,96713.53
2022-09-06T06:44:41.205Z,96717.47
2022-09-06T06:47:09.184Z,96714.34
2022-09-06T06:49:37.457Z,96708.53
2022-09-06T06:52:05.500Z,96714.88
2022-09-06T06:54:33.529Z,96721.31
2022-09-06T06:57:01.622Z,96713.00
2022-09-06T06:59:29.853Z,96715.59
2022-09-06T07:01:59.451Z,96717.38
2022-09-06T07:04:27.660Z,96705.63
2022-09-06T07:12:33.047Z,96713.94
2022-09-06T07:15:01.043Z,96717.00
2022-09-06T07:17:30.838Z,96698.41
2022-09-06T07:20:14.776Z,96715.88
2022-09-06T07:22:43.705Z,96703.78
2022-09-06T07:25:14.454Z,96637.38
2022-09-06T07:30:19.909Z,96713.66
2022-09-06T07:32:49.541Z,96715.13
2022-09-06T07:35:17.636Z,96715.69
2022-09-06T07:37:53.118Z,96713.41
2022-09-06T07:40:21.133Z,96714.25
2022-09-06T07:42:49.417Z,96689.38
2022-09-06T07:45:18.177Z,96716.44
2022-09-06T07:48:01.631Z,96705.97
2022-09-06T07:50:48.881Z,96708.00
2022-09-06T07:53:26.351Z,96708.69
2022-09-06T07:55:57.192Z,96713.50
2022-09-06T07:58:25.204Z,96709.69
2022-09-06T08:00:53.239Z,96704.78
2022-09-06T08:03:21.355Z,96706.28
2022-09-06T08:06:09.346Z,96705.75
2022-09-06T08:11:28.163Z,96711.16
2022-09-06T08:13:57.295Z,96714.34
2022-09-06T08:16:27.926Z,96697.25
2022-09-06T08:18:57.351Z,96714.38
2022-09-06T08:21:28.091Z,96707.06
2022-09-06T08:23:57.558Z,96709.81
2022-09-06T08:26:26.729Z,96713.38
2022-09-06T08:28:56.003Z,96705.25
2022-09-06T08:31:24.293Z,96702.84
2022-09-06T08:33:52.912Z,96703.63
2022-09-06T08:36:21.165Z,96706.41
2022-09-06T08:38:50.526Z,96704.78
2022-09-06T08:41:25.810Z,96709.88
2022-09-06T08:46:49.481Z,96691.94
2022-09-06T08:49:17.596Z,96712.28
2022-09-06T08:51:54.101Z,96695.53
2022-09-06T08:54:29.793Z,96705.00
2022-09-06T08:57:06.019Z,96710.03
2022-09-06T08:59:39.775Z,96712.00
2022-09-06T09:02:13.052Z,96709.31
2022-09-06T09:04:45.962Z,96706.09
2022-09-06T09:07:26.353Z,96713.03
2022-09-06T09:09:57.274Z,96710.34
2022-09-06T09:12:26.400Z,96638.38
2022-09-06T09:14:57.706Z,96705.81
2022-09-06T09:17:27.565Z,96705.88
2022-09-06T09:19:56.162Z,96681.47
2022-09-06T09:22:25.895Z,96702.00
2022-09-06T09:24:55.704Z,96695.25
2022-09-06T09:27:25.754Z,96689.94
2022-09-06T09:32:50.204Z,96665.16
2022-09-06T09:35:24.539Z,96664.81
2022-09-06T09:38:08.082Z,96682.63
2022-09-06T09:40:43.786Z,96680.06
2022-09-06T09:43:17.234Z,96688.50
2022-09-06T09:45:45.444Z,96676.91
2022-09-06T09:48:22.779Z,96674.50
2022-09-06T09:50:50.881Z,96670.22
2022-09-06T09:53:21.475Z,96669.78
2022-09-06T09:55:56.722Z,96673.44
2022-09-06T09:58:32.056Z,96661.94
2022-09-06T10:01:14.460Z,96662.91
2022-09-06T10:09:31.089Z,96662.88
2022-09-06T10:12:01.547Z,96661.84
2022-09-06T10:14:32.291Z,96656.25
2022-09-06T10:17:00.930Z,96657.34
2022-09-06T10:19:41.006Z,96653.84
2022-09-06T10:22:20.844Z,96642.00
2022-09-06T10:25:11.746Z,96654.31
2022-09-06T10:28:08.176Z,96647.66
2022-09-06T10:30:43.369Z,96638.81
2022-09-06T10:33:20.846Z,96644.88
2022-09-06T10:35:48.765Z,96648.38
2022-09-06T10:38:28.419Z,96627.19
2022-09-06T10:41:03.650Z,96638.34
2022-09-06T10:43:39.247Z,96646.91
2022-09-06T10:46:13.245Z,96582.50
2022-09-06T10:48:43.008Z,96644.19
2022-09-06T10:51:18.968Z,96655.22
2022-09-06T10:53:49.744Z,96650.41
2022-09-06T10:56:20.005Z,96648.44
2022-09-06T11:01:43.798Z,96650.28
2022-09-06T11:04:20.235Z,96646.22
2022-09-06T11:06:53.157Z,96639.09
2022-09-06T11:09:26.245Z,96638.81
2022-09-06T11:12:02.292Z,96643.97
2022-09-06T11:14:31.725Z,96633.59
2022-09-06T11:17:03.181Z,96629.41
2022-09-06T11:19:34.554Z,96624.91
2022-09-06T11:22:25.839Z,96628.97
2022-09-06T11:25:21.464Z,96624.72
2022-09-06T11:27:57.770Z,96628.72
2022-09-06T11:30:30.906Z,96621.50
2022-09-06T11:33:11.581Z,96622.75
2022-09-06T11:35:42.240Z,96627.69
2022-09-06T11:38:21.363Z,96630.28
2022-09-06T11:40:55.490Z,96632.69
2022-09-06T11:43:45.283Z,96635.53
2022-09-06T11:46:55.503Z,96629.66
2022-09-06T11:49:41.777Z,96628.28
2022-09-06T11:52:59.386Z,96628.16
2022-09-06T11:55:36.801Z,96619.84
2022-09-06T11:58:07.737Z,96626.56
2022-09-06T12:00:35.878Z,96633.22
2022-09-06T12:06:17.835Z,96622.66
2022-09-06T12:08:45.998Z,96616.47
2022-09-06T12:11:30.163Z,96626.28
2022-09-06T12:14:04.165Z,96614.75
2022-09-06T12:17:25.885Z,96609.69
2022-09-06T12:19:57.879Z,96605.06
2022-09-06T12:23:02.425Z,96608.13
2022-09-06T12:25:56.100Z,96610.81
2022-09-06T12:28:29.242Z,96608.25
2022-09-06T12:30:57.426Z,96597.28
2022-09-06T12:33:28.186Z,96599.81
2022-09-06T12:36:13.785Z,96600.28
2022-09-06T12:38:41.795Z,96588.19
2022-09-06T12:41:09.755Z,96587.19
2022-09-06T12:43:40.289Z,96577.13
2022-09-06T12:46:08.809Z,96582.50
2022-09-06T12:48:41.294Z,96574.34
2022-09-06T12:51:16.265Z,96569.59
2022-09-06T12:53:51.341Z,96571.72
2022-09-06T12:56:21.492Z,96566.00
2022-09-06T12:58:49.415Z,96572.78
2022-09-06T13:01:22.806Z,96573.25
2022-09-06T13:03:57.082Z,96564.88
2022-09-06T13:06:27.496Z,96556.63
2022-09-06T13:08:57.097Z,96567.91
2022-09-06T13:11:27.738Z,96564.56
2022-09-06T13:13:56.312Z,96565.72
2022-09-06T13:16:25.642Z,96563.31
2022-09-06T13:18:54.065Z,96547.88
2022-09-06T13:21:29.627Z,96546.00
2022-09-06T13:23:59.143Z,96547.97
2022-09-06T13:26:35.226Z,96533.81
2022-09-06T13:29:14.913Z,96543.75
2022-09-06T13:31:46.261Z,96534.72
2022-09-06T13:34:21.600Z,96513.78
2022-09-06T13:36:52.431Z,96531.88
2022-09-06T13:39:34.444Z,96539.41
2022-09-06T13:42:05.706Z,96539.13
2022-09-06T13:44:34.723Z,96533.78
2022-09-06T13:47:03.062Z,96525.19
2022-09-06T13:49:31.622Z,96531.88
2022-09-06T13:52:02.457Z,96531.13
2022-09-06T13:54:30.953Z,96533.78
2022-09-06T13:56:59.008Z,96532.94
2022-09-06T13:59:26.984Z,96534.41
2022-09-06T14:02:01.999Z,96532.06
2022-09-06T14:04:30.193Z,96531.19
2022-09-06T14:06:58.262Z,96534.72
2022-09-06T14:09:27.686Z,96526.19
2022-09-06T14:12:33.489Z,96529.03
2022-09-06T14:15:01.601Z,96524.97
2022-09-06T14:17:29.734Z,96522.75
2022-09-06T14:19:57.758Z,96522.34
2022-09-06T14:22:25.816Z,96517.44
2022-09-06T14:24:55.498Z,96517.00
2022-09-06T14:27:23.843Z,96512.94
2022-09-06T14:29:51.844Z,96520.13
2022-09-06T14:32:22.601Z,96522.81
2022-09-06T14:34:50.825Z,96522.44
2022-09-06T14:37:18.767Z,96522.38
2022-09-06T14:40:26.738Z,96520.88
2022-09-06T14:42:54.808Z,96519.91
2022-09-06T14:45:23.465Z,96516.44
2022-09-06T14:47:51.571Z,96524.53
2022-09-06T14:50:19.782Z,96517.06
2022-09-06T14:52:47.912Z,96518.00
2022-09-06T14:55:16.130Z,96515.69
2022-09-06T14:57:45.838Z,96503.88
2022-09-06T15:00:15.148Z,96508.84
2022-09-06T15:02:44.101Z,96508.34
2022-09-06T15:05:12.168Z,96509.59
2022-09-06T15:07:40.221Z,96507.53
2022-09-06T15:10:08.781Z,96507.97
2022-09-06T15:12:37.882Z,96504.25
2022-09-06T15:15:08.169Z,96504.00
2022-09-06T15:17:36.681Z,96514.44
2022-09-06T15:20:05.888Z,96498.00
2022-09-06T15:22:35.809Z,96505.63
2022-09-06T15:25:03.869Z,96466.91
2022-09-06T15:27:33.235Z,96494.09
2022-09-06T15:30:01.320Z,96504.88
2022-09-06T15:32:30.761Z,96502.16
2022-09-06T15:35:04.293Z,96493.25
2022-09-06T15:37:32.807Z,96490.78
2022-09-06T15:40:01.090Z,96496.94
2022-09-06T15:42:29.264Z,96482.09
2022-09-06T15:44:57.329Z,96485.63
2022-09-06T15:47:25.373Z,96488.13
2022-09-06T15:49:54.996Z,96489.66
2022-09-06T15:52:23.081Z,96482.72
2022-09-06T15:55:09.021Z,96487.69
2022-09-06T15:57:37.052Z,96487.06
2022-09-06T16:00:05.795Z,96476.81
2022-09-06T16:02:33.883Z,96483.56
2022-09-06T16:05:03.337Z,96483.41
2022-09-06T16:07:31.396Z,96487.09
2022-09-06T16:10:00.997Z,96488.22
2022-09-06T16:12:29.085Z,96477.28
2022-09-06T16:14:57.129Z,96481.94
2022-09-06T16:17:27.467Z,96488.56
2022-09-06T16:19:55.560Z,96486.31
2022-09-06T16:22:25.122Z,96489.06
2022-09-06T16:24:53.235Z,96490.22
2022-09-06T16:27:21.299Z,96487.88
2022-09-06T16:29:49.347Z,96479.50
2022-09-06T16:32:17.713Z,96478.84
2022-09-06T16:34:45.873Z,96481.31
2022-09-06T16:37:14.066Z,96474.38
2022-09-06T16:39:43.677Z,96497.84
2022-09-06T16:42:12.595Z,96497.84
2022-09-06T16:44:40.618Z,96496.41
2022-09-06T16:47:08.737Z,96492.03
2022-09-06T16:49:36.758Z,96504.41
2022-09-06T16:52:04.989Z,96424.69
2022-09-06T16:54:33.013Z,96490.13
2022-09-06T16:57:03.450Z,96495.84
2022-09-06T16:59:31.500Z,96490.63
2022-09-06T17:01:59.579Z,96489.34
2022-09-06T17:04:27.694Z,96477.16
2022-09-06T17:06:55.823Z,96485.91
2022-09-06T17:09:23.902Z,96485.94
2022-09-06T17:11:51.957Z,96488.34
2022-09-06T17:14:21.394Z,96477.44
2022-09-06T17:17:07.169Z,96484.59
2022-09-06T17:19:37.087Z,96469.03
2022-09-06T17:22:05.534Z,96475.03
2022-09-06T17:24:33.761Z,96481.50
2022-09-06T17:27:01.777Z,96480.38
2022-09-06T17:29:31.279Z,96487.44
2022-09-06T17:31:59.477Z,96474.25
2022-09-06T17:34:27.686Z,96480.56
2022-09-06T17:36:55.718Z,96487.19
2022-09-06T17:39:23.869Z,96480.16
2022-09-06T17:41:53.362Z,96463.66
2022-09-06T17:44:22.891Z,96484.94
2022-09-06T17:47:11.423Z,96476.59
2022-09-06T17:49:40.623Z,96480.47
2022-09-06T17:52:08.705Z,96475.16
2022-09-06T17:54:36.969Z,96478.81
2022-09-06T17:57:05.319Z,96476.75
2022-09-06T17:59:35.953Z,96485.84
2022-09-06T18:02:06.056Z,96492.44
2022-09-06T18:04:34.301Z,96485.97
2022-09-06T18:07:02.433Z,96480.63
2022-09-06T18:09:30.604Z,96491.06
2022-09-06T18:11:58.981Z,96479.38
2022-09-06T18:14:28.573Z,96486.38
2022-09-06T18:16:57.190Z,96490.56
2022-09-06T18:19:27.537Z,96490.97
2022-09-06T18:21:57.354Z,96492.78
2022-09-06T18:24:25.649Z,96493.34
2022-09-06T18:26:53.733Z,96495.56
2022-09-06T18:29:21.972Z,96486.34
2022-09-06T18:31:53.660Z,96487.47
2022-09-06T18:34:22.225Z,96478.94
2022-09-06T18:36:51.743Z,96484.84
2022-09-06T18:39:20.462Z,96479.28
2022-09-06T18:42:07.127Z,96499.81
2022-09-06T18:44:35.877Z,96503.53
2022-09-06T18:47:05.664Z,96487.16
2022-09-06T18:49:34.701Z,96498.81
2022-09-06T18:52:05.674Z,96496.91
2022-09-06T18:54:34.764Z,96491.00
2022-09-06T18:57:03.125Z,96499.53
2022-09-06T18:59:31.586Z,96493.03
2022-09-06T19:01:59.732Z,96506.78
2022-09-06T19:04:27.882Z,96502.81
2022-09-06T19:06:56.104Z,96505.28
2022-09-06T19:09:25.569Z,96512.91
2022-09-06T19:11:53.778Z,96509.63
2022-09-06T19:14:22.272Z,96506.66
2022-09-06T19:16:51.779Z,96517.66
2022-09-06T19:19:21.381Z,96521.59
2022-09-06T19:21:49.415Z,96506.38
2022-09-06T19:24:17.466Z,96496.75
2022-09-06T19:26:47.165Z,96501.34
2022-09-06T19:29:17.133Z,96507.44
2022-09-06T19:31:47.012Z,96500.13
2022-09-06T19:34:15.949Z,96503.78
2022-09-06T19:36:45.070Z,96495.88
2022-09-06T19:39:15.438Z,96499.69
2022-09-06T19:41:47.656Z,96499.56
2022-09-06T19:44:16.620Z,96486.66
2022-09-06T19:46:46.750Z,96489.38
2022-09-06T19:49:16.288Z,96488.81
2022-09-06T19:51:46.441Z,96490.84
2022-09-06T19:54:15.541Z,96494.13
2022-09-06T19:56:44.351Z,96491.81
2022-09-06T19:59:14.668Z,96492.88
2022-09-06T20:01:44.156Z,96484.63
2022-09-06T20:04:13.887Z,96478.22
2022-09-06T20:06:42.561Z,96486.88
2022-09-06T20:09:11.637Z,96484.16
2022-09-06T20:11:41.014Z,96481.16
2022-09-06T20:14:09.602Z,96481.16
2022-09-06T20:16:41.854Z,96469.13
2022-09-06T20:19:11.984Z,96457.56
2022-09-06T20:21:40.314Z,96466.41
2022-09-06T20:24:08.709Z,96463.50
2022-09-06T20:26:37.775Z,96465.09
2022-09-06T20:29:06.688Z,96457.47
2022-09-06T20:31:35.447Z,96459.38
2022-09-06T20:34:06.350Z,96457.00
2022-09-06T20:36:34.645Z,96452.75
2022-09-06T20:39:03.263Z,96448.41
2022-09-06T20:41:31.350Z,96442.94
2022-09-06T20:44:00.826Z,96423.19
2022-09-06T20:46:30.569Z,96404.56
2022-09-06T20:49:01.927Z,96440.78
2022-09-06T20:51:31.860Z,96428.19
2022-09-06T20:54:01.209Z,96427.25
2022-09-06T20:56:31.335Z,96435.91
2022-09-06T20:59:01.734Z,96416.56
2022-09-06T21:01:33.565Z,96437.50
2022-09-06T21:04:02.722Z,96433.41
2022-09-06T21:06:34.499Z,96432.28
2022-09-06T21:09:03.116Z,96434.56
2022-09-06T21:11:31.128Z,96422.19
2022-09-06T21:13:59.421Z,96428.41
2022-09-06T21:16:29.077Z,96430.06
2022-09-06T21:18:58.295Z,96424.91
2022-09-06T21:21:26.943Z,96400.91
2022-09-06T21:23:56.583Z,96428.81
2022-09-06T21:26:24.898Z,96409.63
2022-09-06T21:28:53.159Z,96431.03
2022-09-06T21:31:23.080Z,96415.78
2022-09-06T21:33:53.727Z,96426.38
2022-09-06T21:36:23.361Z,96418.47
2022-09-06T21:38:54.058Z,96347.03
2022-09-06T21:41:24.265Z,96424.56
2022-09-06T21:43:53.446Z,96427.38
2022-09-06T21:46:22.530Z,96404.16
2022-09-06T21:48:52.254Z,96408.97
2022-09-06T21:51:21.786Z,96414.94
2022-09-06T21:53:52.431Z,96416.03
2022-09-06T21:56:20.774Z,96419.78
2022-09-06T21:58:52.532Z,96417.41
2022-09-06T22:01:21.583Z,96420.47
2022-09-06T22:03:49.686Z,96416.25
2022-09-06T22:06:20.033Z,96418.16
2022-09-06T22:08:48.492Z,96413.81
2022-09-06T22:11:18.120Z,96408.91
2022-09-06T22:13:46.774Z,96416.03
2022-09-06T22:16:17.905Z,96419.34
2022-09-06T22:18:46.280Z,96420.97
2022-09-06T22:21:18.533Z,96412.34
2022-09-06T22:23:51.077Z,96414.25
2022-09-06T22:26:19.436Z,96400.94
2022-09-06T22:28:47.617Z,96406.00
2022-09-06T22:31:17.089Z,96401.56
2022-09-06T22:33:45.142Z,96406.81
2022-09-06T22:36:13.188Z,96387.22
2022-09-06T22:38:41.293Z,96394.94
2022-09-06T22:41:09.349Z,96409.03
2022-09-06T22:43:37.552Z,96406.78
2022-09-06T22:46:06.680Z,96401.91
2022-09-06T22:48:37.052Z,96396.00
2022-09-06T22:51:06.105Z,96386.69
2022-09-06T22:53:35.029Z,96388.88
2022-09-06T22:56:04.037Z,96383.06
2022-09-06T22:58:32.213Z,96393.31
2022-09-06T23:01:06.926Z,96383.75
2022-09-06T23:03:36.909Z,96378.19
2022-09-06T23:06:05.827Z,96373.88
2022-09-06T23:08:35.468Z,96373.34
2022-09-06T23:11:06.839Z,96367.03
2022-09-06T23:13:35.436Z,96365.34
2022-09-06T23:16:04.990Z,96362.09
2022-09-06T23:18:33.237Z,96368.09
2022-09-06T23:21:07.077Z,96358.09
2022-09-06T23:23:35.437Z,96353.25
2022-09-06T23:26:11.185Z,96360.00
2022-09-06T23:28:39.429Z,96358.44
2022-09-06T23:31:08.393Z,96352.56
2022-09-06T23:33:37.340Z,96363.31
2022-09-06T23:36:08.462Z,96359.81
2022-09-06T23:38:37.949Z,96355.94
2022-09-06T23:41:06.736Z,96355.72
2022-09-06T23:43:34.827Z,96347.69
2022-09-06T23:46:02.938Z,96349.97
2022-09-06T23:48:31.111Z,96343.59
2022-09-06T23:50:59.199Z,96342.44
2022-09-06T23:53:28.760Z,96341.91
2022-09-06T23:55:56.808Z,96343.75
2022-09-06T23:58:24.957Z,96322.44
